createdAt,value
2022-07-29T00:02:27.160Z,0.00
2022-07-29T00:04:54.659Z,0.15
2022-07-29T00:07:21.442Z,0.77
2022-07-29T00:09:52.129Z,0.25
2022-07-29T00:12:25.292Z,0.15
2022-07-29T00:14:57.102Z,0.45
2022-07-29T00:17:24.899Z,0.70
2022-07-29T00:19:52.089Z,0.15
2022-07-29T00:22:19.045Z,0.22
2022-07-29T00:24:46.067Z,0.00
2022-07-29T00:27:12.774Z,0.30
2022-07-29T00:29:39.787Z,0.03
2022-07-29T00:32:06.873Z,0.20
2022-07-29T00:34:52.472Z,0.30
2022-07-29T00:37:19.171Z,0.00
2022-07-29T00:39:47.364Z,0.13
2022-07-29T00:42:14.117Z,0.05
2022-07-29T00:44:42.561Z,0.00
2022-07-29T00:47:11.422Z,0.10
2022-07-29T00:49:40.720Z,0.38
2022-07-29T00:52:09.139Z,0.20
2022-07-29T00:54:39.138Z,0.50
2022-07-29T00:57:11.734Z,0.17
2022-07-29T00:59:38.742Z,0.43
2022-07-29T01:02:05.630Z,0.25
2022-07-29T01:04:33.723Z,0.20
2022-07-29T01:07:03.680Z,0.10
2022-07-29T01:09:37.279Z,0.20
2022-07-29T01:12:17.645Z,0.20
2022-07-29T01:14:45.514Z,0.10
2022-07-29T01:17:21.773Z,0.28
2022-07-29T01:19:58.534Z,0.10
2022-07-29T01:22:34.472Z,0.30
2022-07-29T01:25:29.523Z,0.40
2022-07-29T01:28:08.996Z,0.13
2022-07-29T01:30:40.046Z,0.15
2022-07-29T01:33:34.775Z,0.00
2022-07-29T01:36:06.107Z,0.05
2022-07-29T01:38:32.908Z,0.17
2022-07-29T01:41:08.340Z,0.28
2022-07-29T01:43:48.029Z,0.10
2022-07-29T01:46:33.250Z,0.17
2022-07-29T01:49:18.626Z,0.43
2022-07-29T01:51:51.624Z,0.08
2022-07-29T01:54:27.341Z,0.43
2022-07-29T01:56:58.168Z,0.60
2022-07-29T01:59:26.345Z,0.10
2022-07-29T02:01:56.293Z,0.22
2022-07-29T02:04:29.537Z,0.20
2022-07-29T02:07:03.006Z,0.20
2022-07-29T02:09:32.521Z,0.17
2022-07-29T02:12:02.595Z,0.20
2022-07-29T02:14:33.996Z,0.10
2022-07-29T02:17:02.987Z,0.10
2022-07-29T02:19:32.179Z,0.47
2022-07-29T02:22:00.604Z,0.05
2022-07-29T02:24:29.301Z,0.20
2022-07-29T02:26:59.153Z,0.30
2022-07-29T02:29:29.118Z,0.13
2022-07-29T02:31:56.957Z,0.10
2022-07-29T02:34:25.794Z,0.47
2022-07-29T02:36:53.341Z,0.47
2022-07-29T02:39:20.955Z,0.30
2022-07-29T02:41:50.009Z,0.00
2022-07-29T02:44:22.472Z,0.05
2022-07-29T02:47:02.753Z,0.32
2022-07-29T02:49:50.052Z,0.00
2022-07-29T02:52:27.441Z,0.43
2022-07-29T02:55:01.494Z,0.22
2022-07-29T02:58:01.132Z,0.28
2022-07-29T03:00:35.355Z,0.00
2022-07-29T03:03:07.145Z,0.00
2022-07-29T03:05:34.474Z,0.00
2022-07-29T03:08:06.919Z,0.10
2022-07-29T03:10:34.998Z,0.10
2022-07-29T03:13:02.820Z,0.10
2022-07-29T03:15:30.168Z,0.10
2022-07-29T03:17:57.947Z,0.10
2022-07-29T03:20:25.384Z,0.10
2022-07-29T03:22:52.603Z,0.00
2022-07-29T03:25:20.857Z,0.10
2022-07-29T03:27:49.127Z,0.10
2022-07-29T03:30:18.179Z,0.00
2022-07-29T03:32:49.518Z,0.40
2022-07-29T03:35:22.208Z,0.20
2022-07-29T03:37:49.840Z,0.10
2022-07-29T03:40:32.523Z,0.00
2022-07-29T03:43:02.120Z,0.00
2022-07-29T03:45:30.659Z,0.00
2022-07-29T03:48:08.517Z,0.00
2022-07-29T03:50:35.877Z,0.10
2022-07-29T03:53:03.993Z,0.17
2022-07-29T03:55:37.541Z,0.15
2022-07-29T03:58:04.920Z,0.25
2022-07-29T04:00:34.384Z,0.32
2022-07-29T04:03:02.492Z,0.22
2022-07-29T04:05:29.219Z,0.00
2022-07-29T04:07:56.291Z,0.15
2022-07-29T04:10:30.612Z,0.10
2022-07-29T04:13:00.465Z,0.35
2022-07-29T04:15:31.429Z,0.20
2022-07-29T04:18:00.186Z,0.43
2022-07-29T04:20:27.201Z,0.35
2022-07-29T04:22:54.792Z,0.20
2022-07-29T04:25:21.589Z,0.20
2022-07-29T04:28:03.974Z,0.50
2022-07-29T04:30:32.508Z,0.20
2022-07-29T04:33:00.221Z,0.00
2022-07-29T04:35:27.076Z,0.60
2022-07-29T04:37:54.964Z,0.03
2022-07-29T04:40:21.927Z,0.30
2022-07-29T04:42:49.445Z,0.10
2022-07-29T04:45:16.583Z,0.08
2022-07-29T04:47:49.405Z,0.00
2022-07-29T04:50:16.299Z,0.22
2022-07-29T04:52:43.410Z,0.15
2022-07-29T04:55:10.958Z,0.20
2022-07-29T04:57:38.201Z,0.57
2022-07-29T05:00:06.681Z,0.00
2022-07-29T05:02:33.771Z,0.20
2022-07-29T05:05:00.562Z,0.40
2022-07-29T05:07:27.631Z,0.10
2022-07-29T05:09:54.544Z,0.20
2022-07-29T05:12:21.583Z,0.10
2022-07-29T05:14:48.312Z,0.30
2022-07-29T05:17:15.545Z,0.30
2022-07-29T05:19:42.306Z,0.25
2022-07-29T05:22:09.304Z,0.10
2022-07-29T05:24:36.027Z,0.75
2022-07-29T05:27:03.054Z,0.10
2022-07-29T05:29:44.588Z,0.30
2022-07-29T05:32:13.971Z,0.10
2022-07-29T05:34:50.928Z,0.47
2022-07-29T05:37:19.753Z,0.10
2022-07-29T05:39:47.456Z,0.22
2022-07-29T05:42:16.395Z,0.00
2022-07-29T05:44:43.360Z,0.20
2022-07-29T05:47:10.065Z,0.28
2022-07-29T05:49:37.230Z,0.17
2022-07-29T05:52:04.420Z,0.47
2022-07-29T05:54:31.918Z,0.30
2022-07-29T05:56:58.796Z,0.40
2022-07-29T05:59:30.164Z,0.40
2022-07-29T06:01:58.209Z,0.10
2022-07-29T06:04:25.610Z,0.50
2022-07-29T06:06:54.651Z,0.22
2022-07-29T06:09:21.801Z,0.38
2022-07-29T06:11:48.660Z,0.20
2022-07-29T06:14:16.637Z,0.50
2022-07-29T06:16:44.000Z,0.28
2022-07-29T06:19:11.180Z,0.52
2022-07-29T06:21:42.269Z,0.60
2022-07-29T06:24:09.777Z,0.35
2022-07-29T06:26:39.715Z,0.10
2022-07-29T06:29:07.787Z,0.57
2022-07-29T06:31:34.791Z,0.57
2022-07-29T06:34:02.139Z,0.50
2022-07-29T06:36:30.411Z,0.57
2022-07-29T06:38:57.675Z,0.20
2022-07-29T06:41:24.947Z,0.57
2022-07-29T06:43:54.638Z,1.38
2022-07-29T06:46:24.335Z,0.30
2022-07-29T06:48:53.342Z,0.30
2022-07-29T06:51:22.749Z,0.13
2022-07-29T06:54:00.306Z,0.20
2022-07-29T06:56:39.524Z,0.60
2022-07-29T06:59:08.311Z,0.38
2022-07-29T07:01:36.525Z,0.30
2022-07-29T07:04:03.561Z,0.20
2022-07-29T07:06:30.446Z,0.32
2022-07-29T07:08:57.678Z,0.32
2022-07-29T07:11:24.663Z,0.20
2022-07-29T07:13:51.958Z,0.63
2022-07-29T07:16:18.840Z,0.68
2022-07-29T07:18:46.488Z,0.38
2022-07-29T07:21:18.761Z,0.63
2022-07-29T07:23:47.305Z,0.38
2022-07-29T07:26:14.515Z,0.28
2022-07-29T07:28:41.694Z,0.30
2022-07-29T07:31:08.454Z,0.20
2022-07-29T07:33:35.494Z,0.10
2022-07-29T07:36:02.293Z,0.40
2022-07-29T07:38:29.570Z,0.30
2022-07-29T07:40:56.264Z,0.10
2022-07-29T07:43:23.917Z,0.32
2022-07-29T07:45:50.746Z,0.32
2022-07-29T07:48:18.010Z,0.28
2022-07-29T07:50:44.801Z,0.35
2022-07-29T07:53:12.164Z,0.10
2022-07-29T07:58:30.925Z,0.40
2022-07-29T08:00:57.807Z,0.20
2022-07-29T08:03:24.933Z,0.10
2022-07-29T08:05:52.779Z,0.20
2022-07-29T08:08:19.910Z,0.43
2022-07-29T08:10:52.997Z,0.10
2022-07-29T08:13:21.569Z,0.47
2022-07-29T08:15:48.673Z,0.22
2022-07-29T08:18:15.421Z,0.30
2022-07-29T08:20:42.429Z,0.17
2022-07-29T08:23:11.901Z,0.30
2022-07-29T08:25:42.788Z,0.30
2022-07-29T08:28:09.623Z,0.20
2022-07-29T08:30:36.397Z,0.10
2022-07-29T08:33:03.702Z,0.10
2022-07-29T08:35:35.037Z,0.10
2022-07-29T08:38:04.662Z,0.10
2022-07-29T08:40:32.528Z,0.13
2022-07-29T08:43:10.194Z,0.10
2022-07-29T08:45:57.509Z,0.52
2022-07-29T08:48:25.624Z,0.30
2022-07-29T08:50:59.774Z,0.30
2022-07-29T08:53:28.182Z,0.57
2022-07-29T08:55:55.788Z,0.20
2022-07-29T08:58:24.613Z,0.10
2022-07-29T09:00:56.950Z,2.40
2022-07-29T09:03:31.647Z,2.83
2022-07-29T09:05:59.927Z,2.55
2022-07-29T09:08:27.222Z,2.47
2022-07-29T09:10:54.423Z,2.40
2022-07-29T09:13:21.428Z,2.28
2022-07-29T09:15:48.242Z,2.10
2022-07-29T09:18:42.556Z,2.30
2022-07-29T09:21:31.370Z,1.88
2022-07-29T09:24:09.892Z,1.90
2022-07-29T09:26:40.863Z,2.17
2022-07-29T09:29:15.912Z,2.15
2022-07-29T09:31:45.985Z,2.25
2022-07-29T09:34:15.271Z,2.47
2022-07-29T09:36:47.533Z,2.13
2022-07-29T09:39:15.576Z,2.40
2022-07-29T09:41:50.115Z,2.42
2022-07-29T09:44:17.636Z,2.60
2022-07-29T09:46:58.987Z,2.67
2022-07-29T09:49:26.735Z,2.40
2022-07-29T09:52:10.934Z,2.42
2022-07-29T09:54:38.019Z,2.25
2022-07-29T09:57:06.859Z,2.90
2022-07-29T09:59:34.598Z,2.45
2022-07-29T10:02:01.659Z,2.45
2022-07-29T10:04:44.428Z,2.80
2022-07-29T10:07:11.217Z,2.53
2022-07-29T10:09:38.321Z,2.25
2022-07-29T10:12:06.237Z,2.30
2022-07-29T10:14:37.029Z,2.50
2022-07-29T10:17:06.289Z,1.90
2022-07-29T10:19:34.559Z,2.05
2022-07-29T10:22:04.496Z,2.42
2022-07-29T10:24:32.721Z,2.00
2022-07-29T10:27:02.292Z,2.40
2022-07-29T10:32:31.777Z,2.53
2022-07-29T10:35:29.213Z,2.58
2022-07-29T10:37:56.908Z,2.30
2022-07-29T10:41:02.726Z,2.58
2022-07-29T10:43:45.180Z,2.38
2022-07-29T10:46:15.404Z,2.10
2022-07-29T10:49:11.541Z,1.77
2022-07-29T10:52:10.559Z,2.00
2022-07-29T10:54:37.937Z,2.40
2022-07-29T10:57:13.819Z,2.17
2022-07-29T10:59:43.249Z,2.08
2022-07-29T11:02:42.299Z,2.35
2022-07-29T11:05:20.479Z,2.25
2022-07-29T11:08:20.188Z,2.40
2022-07-29T11:10:49.346Z,2.35
2022-07-29T11:13:44.073Z,2.33
2022-07-29T11:16:11.458Z,2.45
2022-07-29T11:19:14.079Z,2.35
2022-07-29T11:21:55.003Z,2.10
2022-07-29T11:24:37.099Z,2.17
2022-07-29T11:27:40.719Z,1.83
2022-07-29T11:30:08.520Z,2.00
2022-07-29T11:32:41.312Z,2.20
2022-07-29T11:35:37.467Z,1.80
2022-07-29T11:38:28.019Z,2.28
2022-07-29T11:41:27.258Z,2.10
2022-07-29T11:43:57.065Z,2.10
2022-07-29T11:49:11.469Z,2.50
2022-07-29T11:51:48.568Z,2.28
2022-07-29T11:54:27.560Z,2.00
2022-07-29T11:56:55.873Z,1.98
2022-07-29T11:59:23.097Z,1.77
2022-07-29T12:02:18.412Z,1.80
2022-07-29T12:04:55.346Z,2.15
2022-07-29T12:07:35.251Z,2.10
2022-07-29T12:10:04.243Z,2.08
2022-07-29T12:12:34.334Z,2.00
2022-07-29T12:15:16.231Z,2.17
2022-07-29T12:17:43.192Z,2.03
2022-07-29T12:20:10.501Z,1.95
2022-07-29T12:22:41.987Z,2.20
2022-07-29T12:25:32.681Z,1.83
2022-07-29T12:28:09.320Z,2.00
2022-07-29T12:30:45.082Z,2.05
2022-07-29T12:33:18.033Z,1.70
2022-07-29T12:36:03.491Z,1.85
2022-07-29T12:38:36.070Z,1.95
2022-07-29T12:41:04.500Z,2.00
2022-07-29T12:43:31.803Z,1.52
2022-07-29T12:45:59.049Z,1.60
2022-07-29T12:48:40.615Z,1.45
2022-07-29T12:51:09.692Z,1.63
2022-07-29T12:53:37.449Z,1.85
2022-07-29T12:56:20.618Z,1.60
2022-07-29T12:58:54.075Z,1.80
2022-07-29T13:01:21.872Z,1.60
2022-07-29T13:04:05.592Z,1.55
2022-07-29T13:06:34.172Z,1.60
2022-07-29T13:09:05.146Z,1.30
2022-07-29T13:11:53.225Z,1.75
2022-07-29T13:14:42.658Z,1.60
2022-07-29T13:17:11.699Z,1.55
2022-07-29T13:19:43.073Z,1.90
2022-07-29T13:22:24.270Z,1.65
2022-07-29T13:25:04.895Z,1.50
2022-07-29T13:27:33.988Z,1.40
2022-07-29T13:30:02.762Z,1.60
2022-07-29T13:32:31.720Z,1.10
2022-07-29T13:35:01.093Z,1.23
2022-07-29T13:37:30.660Z,1.40
2022-07-29T13:39:58.770Z,1.50
2022-07-29T13:42:25.955Z,1.58
2022-07-29T13:44:53.417Z,1.50
2022-07-29T13:47:21.420Z,1.70
2022-07-29T13:49:48.708Z,1.48
2022-07-29T13:52:16.459Z,1.80
2022-07-29T13:54:45.531Z,2.40
2022-07-29T13:57:13.622Z,1.70
2022-07-29T13:59:44.085Z,1.90
2022-07-29T14:02:13.208Z,2.05
2022-07-29T14:04:43.706Z,1.65
2022-07-29T14:07:10.966Z,1.55
2022-07-29T14:09:43.256Z,1.90
2022-07-29T14:12:10.250Z,2.00
2022-07-29T14:14:37.879Z,2.50
2022-07-29T14:17:07.589Z,2.03
2022-07-29T14:19:39.404Z,1.90
2022-07-29T14:22:07.696Z,2.20
2022-07-29T14:24:37.548Z,2.30
2022-07-29T14:27:05.991Z,2.60
2022-07-29T14:29:35.191Z,2.17
2022-07-29T14:32:05.963Z,2.05
2022-07-29T14:34:34.665Z,2.00
2022-07-29T14:37:01.632Z,1.98
2022-07-29T14:39:31.661Z,2.08
2022-07-29T14:41:59.175Z,2.30
2022-07-29T14:44:32.418Z,1.92
2022-07-29T14:47:00.703Z,1.77
2022-07-29T14:49:28.427Z,1.88
2022-07-29T14:51:55.364Z,1.50
2022-07-29T14:54:22.817Z,1.50
2022-07-29T14:56:51.783Z,1.50
2022-07-29T14:59:18.860Z,1.47
2022-07-29T15:01:45.642Z,1.75
2022-07-29T15:04:12.682Z,1.20
2022-07-29T15:06:39.784Z,1.75
2022-07-29T15:09:06.819Z,1.63
2022-07-29T15:11:37.031Z,1.90
2022-07-29T15:14:05.735Z,1.70
2022-07-29T15:16:33.103Z,1.58
2022-07-29T15:19:01.070Z,1.67
2022-07-29T15:21:28.524Z,1.60
2022-07-29T15:23:55.657Z,1.75
2022-07-29T15:26:22.439Z,1.48
2022-07-29T15:28:49.283Z,1.83
2022-07-29T15:31:17.464Z,1.30
2022-07-29T15:33:44.174Z,1.50
2022-07-29T15:36:35.798Z,1.27
2022-07-29T15:39:00.664Z,1.33
2022-07-29T15:41:27.550Z,1.30
2022-07-29T15:43:54.625Z,1.27
2022-07-29T15:46:40.018Z,1.20
2022-07-29T15:49:07.945Z,1.20
2022-07-29T15:51:35.005Z,1.40
2022-07-29T15:54:03.646Z,1.20
2022-07-29T15:56:31.559Z,1.13
2022-07-29T15:58:58.669Z,1.40
2022-07-29T16:01:25.942Z,1.08
2022-07-29T16:03:53.258Z,1.10
2022-07-29T16:06:20.791Z,1.20
2022-07-29T16:08:47.573Z,1.10
2022-07-29T16:11:14.673Z,1.55
2022-07-29T16:13:41.464Z,2.53
2022-07-29T16:16:09.205Z,3.60
2022-07-29T16:18:35.992Z,2.35
2022-07-29T16:21:03.213Z,2.33
2022-07-29T16:23:29.954Z,3.10
2022-07-29T16:26:01.232Z,2.72
2022-07-29T16:28:29.600Z,3.20
2022-07-29T16:30:57.510Z,3.90
2022-07-29T16:33:24.704Z,2.97
2022-07-29T16:35:52.720Z,3.03
2022-07-29T16:38:19.424Z,2.78
2022-07-29T16:40:46.692Z,2.38
2022-07-29T16:43:13.899Z,2.47
2022-07-29T16:45:45.981Z,2.80
2022-07-29T16:48:18.027Z,3.28
2022-07-29T16:50:46.017Z,3.65
2022-07-29T16:53:12.775Z,3.88
2022-07-29T16:55:41.983Z,3.90
2022-07-29T16:58:09.788Z,3.70
2022-07-29T17:00:37.069Z,4.38
2022-07-29T17:03:05.421Z,4.22
2022-07-29T17:05:52.656Z,4.25
2022-07-29T17:08:20.054Z,4.78
2022-07-29T17:10:47.307Z,4.60
2022-07-29T17:13:14.378Z,2.60
2022-07-29T17:15:42.842Z,2.30
2022-07-29T17:18:12.813Z,3.00
2022-07-29T17:23:08.749Z,2.08
2022-07-29T17:25:35.992Z,2.30
2022-07-29T17:28:02.688Z,2.17
2022-07-29T17:30:30.241Z,3.17
2022-07-29T17:32:57.101Z,4.15
2022-07-29T17:35:42.598Z,3.80
2022-07-29T17:38:09.292Z,4.25
2022-07-29T17:40:36.337Z,3.72
2022-07-29T17:43:04.707Z,2.42
2022-07-29T17:45:50.068Z,3.90
2022-07-29T17:48:17.888Z,2.75
2022-07-29T17:50:45.635Z,2.17
2022-07-29T17:53:15.673Z,2.20
2022-07-29T17:55:45.626Z,2.20
2022-07-29T17:58:12.759Z,2.10
2022-07-29T18:00:40.088Z,2.17
2022-07-29T18:03:07.330Z,2.65
2022-07-29T18:05:35.368Z,3.58
2022-07-29T18:08:02.352Z,4.43
2022-07-29T18:10:29.462Z,3.80
2022-07-29T18:12:56.435Z,3.00
2022-07-29T18:15:23.465Z,2.60
2022-07-29T18:17:56.926Z,2.58
2022-07-29T18:20:28.236Z,3.30
2022-07-29T18:22:55.035Z,6.65
2022-07-29T18:25:22.887Z,7.13
2022-07-29T18:27:50.273Z,5.82
2022-07-29T18:30:17.533Z,5.00
2022-07-29T18:32:59.232Z,3.72
2022-07-29T18:35:31.738Z,5.40
2022-07-29T18:38:01.264Z,4.53
2022-07-29T18:40:29.720Z,5.30
2022-07-29T18:42:56.532Z,4.68
2022-07-29T18:45:28.401Z,4.53
2022-07-29T18:47:56.998Z,4.50
2022-07-29T18:50:29.184Z,3.63
2022-07-29T18:52:58.683Z,2.75
2022-07-29T18:55:26.207Z,2.92
2022-07-29T18:57:56.009Z,2.75
2022-07-29T19:00:24.884Z,2.63
2022-07-29T19:02:52.673Z,2.17
2022-07-29T19:05:20.051Z,2.60
2022-07-29T19:07:46.878Z,2.63
2022-07-29T19:10:13.911Z,2.70
2022-07-29T19:12:40.735Z,4.32
2022-07-29T19:15:08.496Z,3.30
2022-07-29T19:17:35.188Z,3.03
2022-07-29T19:20:02.944Z,3.00
2022-07-29T19:22:31.096Z,2.58
2022-07-29T19:24:57.874Z,3.45
2022-07-29T19:27:25.836Z,3.00
2022-07-29T19:29:52.548Z,4.28
2022-07-29T19:32:24.789Z,3.47
2022-07-29T19:35:11.520Z,3.70
2022-07-29T19:37:38.242Z,3.45
2022-07-29T19:40:06.276Z,3.72
2022-07-29T19:42:33.277Z,3.22
2022-07-29T19:45:00.034Z,4.28
2022-07-29T19:47:26.844Z,3.67
2022-07-29T19:49:53.902Z,4.07
2022-07-29T19:52:20.615Z,3.95
2022-07-29T19:54:47.647Z,4.18
2022-07-29T19:57:14.379Z,4.30
2022-07-29T19:59:41.549Z,4.63
2022-07-29T20:02:11.120Z,4.95
2022-07-29T20:04:39.224Z,5.28
2022-07-29T20:07:06.689Z,4.15
2022-07-29T20:09:33.953Z,4.28
2022-07-29T20:12:00.883Z,4.30
2022-07-29T20:14:27.940Z,4.05
2022-07-29T20:16:54.667Z,3.78
2022-07-29T20:19:21.884Z,4.60
2022-07-29T20:21:48.565Z,4.70
2022-07-29T20:24:15.569Z,4.18
2022-07-29T20:26:42.314Z,5.05
2022-07-29T20:29:09.440Z,5.43
2022-07-29T20:31:36.368Z,5.35
2022-07-29T20:34:04.057Z,5.25
2022-07-29T20:36:30.758Z,4.88
2022-07-29T20:39:00.169Z,5.60
2022-07-29T20:41:28.924Z,5.57
2022-07-29T20:43:56.294Z,4.95
2022-07-29T20:46:23.098Z,5.35
2022-07-29T20:48:50.168Z,4.68
2022-07-29T20:51:16.930Z,5.00
2022-07-29T20:53:43.947Z,5.22
2022-07-29T20:56:12.358Z,4.47
2022-07-29T20:58:40.662Z,5.15
2022-07-29T21:01:07.799Z,7.65
2022-07-29T21:03:35.334Z,6.68
2022-07-29T21:06:02.609Z,5.30
2022-07-29T21:08:29.635Z,5.07
2022-07-29T21:10:56.673Z,0.13
2022-07-29T21:13:25.773Z,0.10
2022-07-29T21:15:56.745Z,0.10
2022-07-29T21:18:37.155Z,0.20
2022-07-29T21:21:05.271Z,0.17
2022-07-29T21:23:32.292Z,0.17
2022-07-29T21:25:59.017Z,0.20
2022-07-29T21:28:37.106Z,0.22
2022-07-29T21:31:07.809Z,0.20
2022-07-29T21:33:35.503Z,0.20
2022-07-29T21:38:50.724Z,0.20
2022-07-29T21:41:17.402Z,0.05
2022-07-29T21:43:44.484Z,0.47
2022-07-29T21:46:11.257Z,0.30
2022-07-29T21:48:44.192Z,0.10
2022-07-29T21:51:11.368Z,0.47
2022-07-29T21:53:38.361Z,0.30
2022-07-29T21:56:06.758Z,0.20
2022-07-29T21:58:37.303Z,0.20
2022-07-29T22:01:04.107Z,0.10
2022-07-29T22:03:31.186Z,0.20
2022-07-29T22:05:57.914Z,0.08
2022-07-29T22:08:25.034Z,0.50
2022-07-29T22:10:51.704Z,0.28
2022-07-29T22:13:18.765Z,0.00
2022-07-29T22:15:47.175Z,0.17
2022-07-29T22:18:19.480Z,0.20
2022-07-29T22:20:48.776Z,0.10
2022-07-29T22:23:15.898Z,0.40
2022-07-29T22:25:42.708Z,0.35
2022-07-29T22:28:09.708Z,0.60
2022-07-29T22:30:36.510Z,0.00
2022-07-29T22:33:03.552Z,0.00
2022-07-29T22:35:30.255Z,0.45
2022-07-29T22:37:57.237Z,0.20
2022-07-29T22:40:23.937Z,0.15
2022-07-29T22:42:57.838Z,0.10
2022-07-29T22:45:24.522Z,0.10
2022-07-29T22:47:55.930Z,0.10
2022-07-29T22:50:24.371Z,0.30
2022-07-29T22:52:51.378Z,0.22
2022-07-29T22:55:18.065Z,0.10
2022-07-29T22:57:45.170Z,0.47
2022-07-29T23:00:12.817Z,0.30
2022-07-29T23:02:41.736Z,0.10
2022-07-29T23:05:09.007Z,0.10
2022-07-29T23:07:36.076Z,0.13
2022-07-29T23:10:03.588Z,0.10
2022-07-29T23:12:30.249Z,0.28
2022-07-29T23:14:58.352Z,0.20
2022-07-29T23:17:25.309Z,0.52
2022-07-29T23:19:52.328Z,0.10
2022-07-29T23:22:19.318Z,0.10
2022-07-29T23:24:45.996Z,0.25
2022-07-29T23:27:13.001Z,0.13
2022-07-29T23:29:39.663Z,0.20
2022-07-29T23:32:06.585Z,0.28
2022-07-29T23:34:33.604Z,0.15
2022-07-29T23:37:00.573Z,0.00
2022-07-29T23:39:27.773Z,0.32
2022-07-29T23:41:54.452Z,0.20
2022-07-29T23:44:21.688Z,0.17
2022-07-29T23:46:48.475Z,0.08
2022-07-29T23:49:15.568Z,0.13
2022-07-29T23:51:42.354Z,0.10
2022-07-29T23:54:09.394Z,0.30
2022-07-29T23:56:36.077Z,0.32
2022-07-29T23:59:05.805Z,0.15
